Time;durP1;ratioP1;P1;durP2;ratioP2;P2;SDS_P1;SDS_P2;PMS_P1;PMS_P2;Temp;Humidity;BMP_temperature;BMP_pressure;BME280_temperature;BME280_humidity;BME280_pressure;Samples;Min_cycle;Max_cycle;Signal;HPM_P1;HPM_P2
2023/01/19 00:02:29;;;;;;;6.50;5.17;;;3.80;99.30;;;;;;4929266;29;20943;-87
2023/01/19 00:05:19;;;;;;;7.23;6.17;;;3.80;99.30;;;;;;4938702;29;20508;-87
2023/01/19 00:08:19;;;;;;;7.80;5.80;;;3.80;99.40;;;;;;4942508;28;20472;-86
2023/01/19 00:11:10;;;;;;;6.60;5.57;;;3.70;99.50;;;;;;4964544;28;20520;-88
2023/01/19 00:14:04;;;;;;;7.00;5.27;;;3.70;99.50;;;;;;4952313;28;20498;-86
2023/01/19 00:16:49;;;;;;;5.80;5.20;;;3.70;99.50;;;;;;4935893;29;20461;-87
2023/01/19 00:19:44;;;;;;;6.57;5.00;;;3.60;99.60;;;;;;4931822;29;20536;-86
2023/01/19 00:25:43;;;;;;;7.63;6.37;;;3.60;99.70;;;;;;4936080;29;20445;-86
2023/01/19 00:28:17;;;;;;;14.83;7.10;;;3.50;99.90;;;;;;4923161;29;20488;-87
2023/01/19 00:30:58;;;;;;;8.67;5.80;;;3.60;99.90;;;;;;4945289;29;20460;-87
2023/01/19 00:33:29;;;;;;;8.00;5.23;;;3.60;99.90;;;;;;4928250;29;20450;-86
2023/01/19 00:36:10;;;;;;;9.83;5.80;;;3.70;99.90;;;;;;4898674;28;20482;-87
2023/01/19 00:38:47;;;;;;;5.43;4.93;;;3.80;99.90;;;;;;4999444;28;20492;-87
2023/01/19 00:42:38;;;;;;;6.00;5.40;;;3.80;99.90;;;;;;4993010;28;20493;-86
2023/01/19 00:44:17;;;;;;;8.77;5.80;;;3.80;99.80;;;;;;4994864;28;20455;-86
2023/01/19 00:46:46;;;;;;;6.97;4.73;;;3.80;99.80;;;;;;4992980;28;20462;-87
2023/01/19 00:49:19;;;;;;;8.83;5.80;;;3.80;99.90;;;;;;4990960;28;20480;-87
2023/01/19 00:52:05;;;;;;;5.83;5.13;;;3.90;99.90;;;;;;4992021;28;20463;-86
2023/01/19 00:54:35;;;;;;;6.07;5.10;;;3.90;99.90;;;;;;5009990;28;20541;-87
2023/01/19 00:57:03;;;;;;;7.40;5.77;;;3.90;99.90;;;;;;4995669;28;20451;-87
2023/01/19 00:59:35;;;;;;;6.60;5.47;;;3.90;99.80;;;;;;4994740;28;21191;-87
2023/01/19 01:02:02;;;;;;;7.63;4.97;;;4.00;99.70;;;;;;4991958;28;20475;-86
2023/01/19 01:04:34;;;;;;;10.10;5.50;;;4.00;99.60;;;;;;4988840;28;22049;-88
2023/01/19 01:07:05;;;;;;;10.43;5.07;;;4.00;99.50;;;;;;4989749;28;20463;-88
2023/01/19 01:09:40;;;;;;;6.67;5.20;;;3.90;99.50;;;;;;4992737;28;20445;-86
2023/01/19 01:12:28;;;;;;;6.90;5.53;;;3.90;99.70;;;;;;4993402;28;20525;-85
2023/01/19 01:15:20;;;;;;;6.10;5.17;;;4.00;99.80;;;;;;4991133;28;20572;-87
2023/01/19 01:18:01;;;;;;;8.00;5.33;;;4.10;99.80;;;;;;4991408;28;20914;-87
2023/01/19 01:20:33;;;;;;;8.63;5.70;;;4.10;99.60;;;;;;4988339;28;21011;-87
2023/01/19 01:23:00;;;;;;;5.47;4.80;;;4.10;99.40;;;;;;4983213;28;20463;-87
2023/01/19 01:25:32;;;;;;;8.93;4.50;;;4.00;99.30;;;;;;4984357;28;20467;-87
2023/01/19 01:28:07;;;;;;;5.47;4.50;;;3.90;99.60;;;;;;4984821;28;20501;-87
2023/01/19 01:30:39;;;;;;;5.77;4.50;;;3.90;99.70;;;;;;4981540;28;21067;-87
2023/01/19 01:33:20;;;;;;;6.13;4.20;;;3.90;99.80;;;;;;5000262;28;20463;-86
2023/01/19 01:36:08;;;;;;;5.57;4.50;;;3.90;99.90;;;;;;4985585;28;20530;-85
2023/01/19 01:38:40;;;;;;;5.87;5.07;;;3.90;99.80;;;;;;4984405;28;21309;-87
2023/01/19 01:41:20;;;;;;;6.23;4.63;;;3.90;99.80;;;;;;4994795;28;20482;-87
2023/01/19 01:44:03;;;;;;;5.10;4.57;;;3.90;99.90;;;;;;4994833;28;20470;-86
2023/01/19 01:46:35;;;;;;;5.90;4.53;;;3.70;99.90;;;;;;4990582;28;20479;-88
2023/01/19 01:49:14;;;;;;;7.30;4.40;;;3.90;99.90;;;;;;4993312;28;20586;-88
2023/01/19 01:51:57;;;;;;;4.73;4.33;;;3.90;99.90;;;;;;4985212;28;20553;-86
2023/01/19 01:54:31;;;;;;;5.70;5.07;;;4.00;99.90;;;;;;4985564;28;20463;-87
2023/01/19 01:57:16;;;;;;;5.30;4.47;;;4.10;99.80;;;;;;4983123;28;20475;-87
2023/01/19 01:59:57;;;;;;;5.03;4.13;;;4.20;99.60;;;;;;4987629;28;20484;-87
2023/01/19 02:05:31;;;;;;;5.33;4.17;;;4.20;99.40;;;;;;4984541;28;20463;-87
2023/01/19 02:13:49;;;;;;;4.00;3.60;;;4.10;99.20;;;;;;4991983;28;20451;-87
2023/01/19 02:16:22;;;;;;;4.73;4.30;;;4.10;99.30;;;;;;4991304;28;20517;-85
2023/01/19 02:18:53;;;;;;;7.70;3.83;;;3.90;99.40;;;;;;5003581;28;21729;-87
2023/01/19 02:22:04;;;;;;;4.30;3.90;;;3.90;99.70;;;;;;4994032;28;20491;-84
2023/01/19 02:24:41;;;;;;;4.70;3.43;;;3.90;99.90;;;;;;4977083;28;20545;-86
2023/01/19 02:27:14;;;;;;;4.70;3.23;;;4.10;99.70;;;;;;5005072;28;20481;-85
2023/01/19 02:29:47;;;;;;;4.10;2.90;;;4.00;99.60;;;;;;5012489;28;20498;-87
2023/01/19 02:32:16;;;;;;;3.03;2.73;;;4.00;99.50;;;;;;5000549;28;20458;-87
2023/01/19 02:34:52;;;;;;;3.50;3.20;;;4.10;99.50;;;;;;4995798;28;20473;-87
2023/01/19 02:37:25;;;;;;;5.30;3.13;;;4.10;99.30;;;;;;4996343;28;20499;-86
2023/01/19 02:40:12;;;;;;;3.63;2.93;;;4.10;99.20;;;;;;4992327;28;20750;-87
2023/01/19 02:42:51;;;;;;;5.10;3.97;;;4.00;99.20;;;;;;4994591;28;21985;-87
2023/01/19 02:45:25;;;;;;;3.87;3.57;;;4.00;99.20;;;;;;4995821;28;20534;-87
2023/01/19 02:47:53;;;;;;;5.07;3.10;;;4.00;99.30;;;;;;4992192;28;20598;-86
2023/01/19 02:50:57;;;;;;;3.23;2.93;;;3.80;99.50;;;;;;4999804;28;20529;-86
2023/01/19 02:53:33;;;;;;;3.20;2.93;;;4.00;99.60;;;;;;4995095;28;20460;-88
2023/01/19 02:56:13;;;;;;;3.57;2.43;;;4.00;99.50;;;;;;4996878;28;20837;-88
2023/01/19 02:58:51;;;;;;;3.60;3.30;;;3.90;99.50;;;;;;4996678;28;20589;-88
2023/01/19 03:05:21;;;;;;;3.30;3.10;;;4.00;99.60;;;;;;4998569;28;20468;-87
2023/01/19 03:08:39;;;;;;;3.80;3.10;;;4.00;99.70;;;;;;5011125;28;20475;-89
2023/01/19 03:11:21;;;;;;;3.93;3.63;;;4.10;99.50;;;;;;5006830;28;20466;-86
2023/01/19 03:14:19;;;;;;;3.73;3.43;;;4.20;99.30;;;;;;5005538;28;20466;-87
2023/01/19 03:17:01;;;;;;;3.30;2.90;;;4.10;99.10;;;;;;4996845;28;20624;-86
2023/01/19 03:19:35;;;;;;;3.17;2.87;;;4.10;99.20;;;;;;4998994;28;20479;-87
2023/01/19 03:22:24;;;;;;;3.87;2.57;;;4.10;99.00;;;;;;5000199;28;20487;-88
2023/01/19 03:25:01;;;;;;;4.23;3.07;;;4.10;99.00;;;;;;4997004;28;20455;-87
2023/01/19 03:27:42;;;;;;;4.80;3.60;;;4.00;99.00;;;;;;4998015;28;20502;-88
2023/01/19 03:30:59;;;;;;;4.10;3.70;;;4.00;99.20;;;;;;4990468;28;21028;-87
2023/01/19 03:33:42;;;;;;;4.67;2.90;;;3.90;99.30;;;;;;4986620;28;20877;-86
2023/01/19 03:36:36;;;;;;;4.67;3.40;;;3.90;99.40;;;;;;4997927;28;20580;-87
2023/01/19 03:39:08;;;;;;;4.50;3.87;;;4.00;99.30;;;;;;4996805;28;20483;-86
2023/01/19 03:41:40;;;;;;;5.27;3.63;;;4.00;99.30;;;;;;5001633;28;20594;-87
2023/01/19 03:44:33;;;;;;;6.50;3.30;;;4.10;99.20;;;;;;5001518;28;20566;-88
2023/01/19 03:47:05;;;;;;;5.23;4.00;;;4.00;99.20;;;;;;4985461;28;20537;-86
2023/01/19 03:49:37;;;;;;;3.27;2.53;;;4.00;99.20;;;;;;5003841;28;20435;-88
2023/01/19 03:52:13;;;;;;;4.17;3.67;;;4.00;99.10;;;;;;4997811;28;20565;-86
2023/01/19 03:54:43;;;;;;;5.13;3.10;;;4.00;99.20;;;;;;4995306;28;20478;-84
2023/01/19 03:57:10;;;;;;;4.30;3.57;;;4.00;99.40;;;;;;4993104;28;20534;-88
2023/01/19 03:59:48;;;;;;;6.77;4.50;;;4.00;99.30;;;;;;4997407;28;20467;-87
2023/01/19 04:02:30;;;;;;;9.70;3.30;;;4.00;99.20;;;;;;4995148;28;20545;-87
2023/01/19 04:05:09;;;;;;;4.07;3.10;;;4.00;99.40;;;;;;4996113;28;20479;-86
2023/01/19 04:07:57;;;;;;;4.47;2.97;;;4.10;99.30;;;;;;4996529;28;20478;-87
2023/01/19 04:10:44;;;;;;;3.83;2.80;;;4.10;99.00;;;;;;4996980;28;20510;-86
2023/01/19 04:13:32;;;;;;;4.20;3.10;;;4.10;99.00;;;;;;4989662;28;20455;-87
2023/01/19 04:16:19;;;;;;;3.73;3.23;;;4.10;99.10;;;;;;4998471;28;20466;-85
2023/01/19 04:19:09;;;;;;;3.33;2.93;;;4.20;99.00;;;;;;5001863;28;20767;-86
2023/01/19 04:21:54;;;;;;;3.30;3.00;;;4.20;98.80;;;;;;5003408;28;20490;-84
2023/01/19 04:24:37;;;;;;;3.53;3.23;;;4.10;98.80;;;;;;5006580;28;20494;-87
2023/01/19 04:27:29;;;;;;;4.30;3.10;;;4.10;98.90;;;;;;5004958;28;20520;-86
2023/01/19 04:30:02;;;;;;;4.03;3.63;;;4.10;98.90;;;;;;4991755;28;20574;-87
2023/01/19 04:32:50;;;;;;;5.07;3.53;;;4.10;98.80;;;;;;5001458;28;20447;-85
2023/01/19 04:35:41;;;;;;;4.00;3.70;;;4.10;99.00;;;;;;5005889;28;20526;-86
2023/01/19 04:38:10;;;;;;;3.43;3.13;;;4.10;98.90;;;;;;4987544;28;20565;-86
2023/01/19 04:40:44;;;;;;;5.20;3.47;;;4.20;98.70;;;;;;4999784;28;20538;-87
2023/01/19 04:43:21;;;;;;;3.80;3.00;;;4.30;98.70;;;;;;5001459;28;20462;-88
2023/01/19 04:45:55;;;;;;;3.03;2.60;;;4.20;98.60;;;;;;5010282;28;20474;-85
2023/01/19 04:51:36;;;;;;;4.10;3.07;;;4.30;98.10;;;;;;5004147;28;20500;-88
2023/01/19 04:54:07;;;;;;;9.10;4.00;;;4.40;98.20;;;;;;5000329;28;20467;-88
2023/01/19 04:56:56;;;;;;;6.60;4.00;;;4.50;98.20;;;;;;4996837;28;20472;-88
2023/01/19 04:59:41;;;;;;;3.90;3.43;;;4.50;98.10;;;;;;4999960;28;20479;-86
2023/01/19 05:02:21;;;;;;;4.83;2.67;;;4.60;97.80;;;;;;5005114;28;20491;-88
2023/01/19 05:05:00;;;;;;;4.70;3.40;;;4.60;97.90;;;;;;5004587;28;20554;-85
2023/01/19 05:07:28;;;;;;;5.27;3.63;;;4.60;97.70;;;;;;5000633;28;21349;-88
2023/01/19 05:13:06;;;;;;;4.27;2.93;;;4.60;98.10;;;;;;5009343;28;20435;-86
2023/01/19 05:15:46;;;;;;;6.83;3.60;;;4.70;97.90;;;;;;5009962;28;20489;-86
2023/01/19 05:18:24;;;;;;;3.63;3.03;;;4.70;97.90;;;;;;5001804;28;20471;-85
2023/01/19 05:21:10;;;;;;;10.73;3.90;;;4.60;98.20;;;;;;4994012;28;20503;-85
2023/01/19 05:23:55;;;;;;;4.17;3.60;;;4.70;98.20;;;;;;4995283;28;20489;-86
2023/01/19 05:26:42;;;;;;;7.47;3.67;;;4.80;97.90;;;;;;4991601;28;20457;-88
2023/01/19 05:29:15;;;;;;;4.23;3.60;;;4.90;97.80;;;;;;4992984;28;20463;-88
2023/01/19 05:31:57;;;;;;;3.80;3.50;;;4.80;97.80;;;;;;4990833;28;20567;-84
2023/01/19 05:34:38;;;;;;;5.40;3.70;;;4.80;98.00;;;;;;4992675;28;20459;-86
2023/01/19 05:37:13;;;;;;;4.93;3.10;;;4.70;98.10;;;;;;5000312;28;20471;-87
2023/01/19 05:39:49;;;;;;;8.60;3.00;;;4.70;98.60;;;;;;4991752;28;20485;-87
2023/01/19 05:42:22;;;;;;;5.00;3.63;;;4.50;99.10;;;;;;4990999;28;20478;-86
2023/01/19 05:44:58;;;;;;;7.70;3.50;;;4.60;99.90;;;;;;4997272;28;20476;-86
2023/01/19 05:47:32;;;;;;;6.50;3.67;;;4.50;99.90;;;;;;4994889;28;20485;-87
2023/01/19 05:50:04;;;;;;;4.03;3.53;;;4.30;99.90;;;;;;5013826;28;21120;-87
2023/01/19 05:52:55;;;;;;;4.40;3.50;;;4.20;99.90;;;;;;4995526;28;20458;-84
2023/01/19 05:55:49;;;;;;;4.23;3.83;;;4.00;99.90;;;;;;4994746;28;20470;-87
2023/01/19 05:58:33;;;;;;;5.13;4.20;;;4.50;99.90;;;;;;4992143;28;20487;-86
2023/01/19 06:01:10;;;;;;;7.20;4.83;;;4.60;99.90;;;;;;4999095;28;20482;-86
2023/01/19 06:03:54;;;;;;;5.20;4.10;;;4.30;99.90;;;;;;4998261;28;20921;-85
2023/01/19 06:06:40;;;;;;;8.33;4.37;;;4.10;99.90;;;;;;4998832;28;20474;-90
2023/01/19 06:09:31;;;;;;;8.53;4.57;;;4.40;99.90;;;;;;4999380;28;20470;-87
2023/01/19 06:12:27;;;;;;;6.20;4.77;;;4.30;99.90;;;;;;4999091;28;20457;-86
2023/01/19 06:15:21;;;;;;;9.90;4.83;;;4.10;99.90;;;;;;4998075;28;20471;-86
2023/01/19 06:21:25;;;;;;;5.43;4.73;;;3.80;99.90;;;;;;5001590;28;20490;-85
2023/01/19 06:24:38;;;;;;;6.90;5.63;;;4.00;99.90;;;;;;4993982;28;20497;-87
2023/01/19 06:27:39;;;;;;;7.73;5.30;;;3.90;99.90;;;;;;4988335;28;20474;-87
2023/01/19 06:31:06;;;;;;;11.37;5.90;;;4.10;99.90;;;;;;4988736;28;21433;-88
2023/01/19 06:33:42;;;;;;;6.83;4.60;;;3.70;99.90;;;;;;4988308;28;21009;-88
2023/01/19 06:36:17;;;;;;;7.70;5.93;;;3.80;99.90;;;;;;5001125;28;20473;-85
2023/01/19 06:39:26;;;;;;;9.47;6.03;;;3.60;99.90;;;;;;5001659;28;20478;-88
2023/01/19 06:42:24;;;;;;;8.70;5.60;;;3.40;99.90;;;;;;4941601;29;20482;-89
2023/01/19 06:45:08;;;;;;;7.90;5.20;;;3.40;99.90;;;;;;4958764;28;20435;-88
2023/01/19 06:48:03;;;;;;;8.40;5.20;;;3.40;99.90;;;;;;5000356;28;20466;-86
2023/01/19 06:50:35;;;;;;;7.10;5.57;;;3.40;99.90;;;;;;5006515;28;20496;-87
2023/01/19 06:53:36;;;;;;;7.27;5.40;;;3.50;99.90;;;;;;5004703;28;20493;-89
2023/01/19 06:56:25;;;;;;;6.13;5.43;;;3.50;99.90;;;;;;5005023;28;20471;-87
2023/01/19 06:59:00;;;;;;;6.87;5.30;;;3.40;99.90;;;;;;5005765;28;20466;-88
2023/01/19 07:01:48;;;;;;;6.90;5.23;;;3.40;99.90;;;;;;5004702;28;20466;-87
2023/01/19 07:04:24;;;;;;;5.70;5.13;;;3.40;99.90;;;;;;5014565;28;20465;-87
2023/01/19 07:07:10;;;;;;;7.50;5.70;;;3.40;99.90;;;;;;5006863;28;20458;-87
2023/01/19 07:10:10;;;;;;;7.03;4.97;;;3.40;99.90;;;;;;5003297;28;20583;-86
2023/01/19 07:12:43;;;;;;;42.13;11.93;;;3.40;99.90;;;;;;5003491;28;20459;-86
2023/01/19 07:15:32;;;;;;;20.53;6.90;;;3.40;99.90;;;;;;5006131;28;20474;-88
2023/01/19 07:18:09;;;;;;;15.30;6.97;;;3.40;99.90;;;;;;4997586;28;20839;-87
2023/01/19 07:20:52;;;;;;;7.80;5.90;;;3.50;99.90;;;;;;5002646;28;20457;-88
2023/01/19 07:23:29;;;;;;;30.50;8.60;;;3.40;99.90;;;;;;4998289;28;20488;-87
2023/01/19 07:26:01;;;;;;;7.60;6.17;;;3.70;99.90;;;;;;4999940;28;21455;-87
2023/01/19 07:28:32;;;;;;;10.23;6.83;;;3.50;99.90;;;;;;4997831;28;20451;-86
2023/01/19 07:31:02;;;;;;;8.37;6.70;;;3.50;99.90;;;;;;4998106;28;20466;-87
2023/01/19 07:33:29;;;;;;;8.13;5.57;;;3.60;99.90;;;;;;4996525;28;20456;-85
2023/01/19 07:36:05;;;;;;;8.10;6.83;;;3.60;99.90;;;;;;4999156;28;20980;-85
2023/01/19 07:38:38;;;;;;;11.23;8.20;;;3.50;99.90;;;;;;5002795;28;20494;-88
2023/01/19 07:41:11;;;;;;;8.30;6.67;;;3.40;99.90;;;;;;5002994;28;20462;-88
2023/01/19 07:43:45;;;;;;;9.73;7.60;;;3.40;99.90;;;;;;5003347;28;20566;-86
2023/01/19 07:46:19;;;;;;;7.70;6.83;;;3.40;99.90;;;;;;5008044;28;20459;-87
2023/01/19 07:48:58;;;;;;;9.03;6.13;;;3.50;99.90;;;;;;5010357;28;20475;-88
2023/01/19 07:51:31;;;;;;;7.20;6.33;;;3.50;99.90;;;;;;5010746;28;20448;-85
2023/01/19 07:54:09;;;;;;;8.70;6.10;;;3.90;99.90;;;;;;5009423;28;20458;-87
2023/01/19 07:56:51;;;;;;;12.60;7.00;;;3.70;99.90;;;;;;5008312;28;20486;-89
2023/01/19 07:59:34;;;;;;;7.93;7.00;;;3.70;99.90;;;;;;5011073;28;20558;-87
2023/01/19 08:10:28;;;;;;;10.53;6.40;;;3.70;99.90;;;;;;5222451;22;20521;-87
2023/01/19 08:23:53;;;;;;;9.70;7.07;;;3.70;99.90;;;;;;6145956;22;1371032;-86
2023/01/19 08:26:26;;;;;;;9.73;6.40;;;3.90;99.90;;;;;;6213858;23;20236;-87
2023/01/19 08:29:23;;;;;;;9.67;7.10;;;3.80;99.90;;;;;;6187976;23;20452;-86
2023/01/19 08:43:03;;;;;;;11.87;7.50;;;3.80;99.90;;;;;;6168341;23;20446;-87
2023/01/19 08:45:48;;;;;;;8.33;6.80;;;4.00;99.90;;;;;;6174804;23;20402;-87
2023/01/19 08:51:11;;;;;;;8.50;6.07;;;3.90;99.90;;;;;;6211510;23;20425;-89
2023/01/19 08:53:46;;;;;;;8.00;6.50;;;3.90;99.90;;;;;;6123346;23;20441;-88
2023/01/19 08:56:37;;;;;;;11.40;6.70;;;3.90;99.90;;;;;;6185088;23;20453;-86
2023/01/19 08:59:16;;;;;;;10.53;7.80;;;3.80;99.90;;;;;;6241043;23;20424;-87
2023/01/19 09:01:57;;;;;;;8.90;6.43;;;3.90;99.90;;;;;;6216011;23;20472;-87
2023/01/19 09:04:38;;;;;;;9.70;6.90;;;4.00;99.90;;;;;;6215905;23;20381;-87
2023/01/19 09:07:19;;;;;;;10.43;7.30;;;4.10;99.90;;;;;;6217352;23;20383;-86
2023/01/19 09:10:00;;;;;;;10.03;7.03;;;4.10;99.90;;;;;;6238097;23;20412;-87
2023/01/19 09:12:29;;;;;;;11.03;8.00;;;4.20;99.90;;;;;;6241621;23;20435;-87
2023/01/19 09:15:11;;;;;;;10.27;7.37;;;4.30;99.90;;;;;;6210647;23;20392;-88
2023/01/19 09:17:43;;;;;;;9.47;8.00;;;4.20;99.90;;;;;;6216231;23;20927;-87
2023/01/19 09:20:24;;;;;;;10.80;8.10;;;4.30;99.90;;;;;;6198786;23;20388;-86
2023/01/19 09:23:00;;;;;;;11.30;8.27;;;4.30;99.90;;;;;;6150710;22;20449;-88
2023/01/19 09:25:48;;;;;;;11.97;8.30;;;4.30;99.90;;;;;;6207464;23;20473;-87
2023/01/19 09:28:16;;;;;;;11.80;8.00;;;4.40;99.90;;;;;;6227087;23;20508;-87
2023/01/19 09:33:18;;;;;;;11.77;9.23;;;4.60;99.90;;;;;;6231897;23;20436;-86
2023/01/19 09:35:47;;;;;;;11.53;8.07;;;4.70;99.90;;;;;;6232263;23;20402;-87
2023/01/19 09:38:19;;;;;;;12.27;8.87;;;4.50;99.90;;;;;;6229561;23;20421;-89
2023/01/19 09:40:56;;;;;;;15.80;9.50;;;4.50;99.90;;;;;;6207121;23;20464;-86
2023/01/19 09:43:47;;;;;;;10.70;8.20;;;4.60;99.90;;;;;;6205343;23;20393;-86
2023/01/19 09:46:40;;;;;;;15.50;8.13;;;4.50;99.90;;;;;;6205179;23;20520;-85
2023/01/19 09:49:33;;;;;;;11.30;8.77;;;4.40;99.90;;;;;;6210905;23;20443;-87
2023/01/19 09:52:14;;;;;;;15.30;8.67;;;4.50;99.90;;;;;;6234613;23;20460;-87
2023/01/19 09:54:59;;;;;;;18.17;10.90;;;4.50;99.90;;;;;;6204724;23;20413;-88
2023/01/19 09:57:34;;;;;;;15.57;10.00;;;4.60;99.90;;;;;;6203536;23;20397;-88
2023/01/19 10:00:15;;;;;;;10.97;8.83;;;4.60;99.90;;;;;;6198775;23;20417;-85
2023/01/19 10:03:23;;;;;;;15.20;9.50;;;4.60;99.90;;;;;;6189354;23;20397;-89
2023/01/19 10:06:08;;;;;;;13.60;8.97;;;4.60;99.90;;;;;;6206505;23;20408;-88
2023/01/19 10:08:51;;;;;;;12.67;9.87;;;4.70;99.90;;;;;;6229345;23;20436;-88
2023/01/19 10:11:35;;;;;;;14.33;10.00;;;4.60;99.90;;;;;;6200604;23;20388;-89
2023/01/19 10:15:00;;;;;;;17.97;10.00;;;4.50;99.90;;;;;;6191205;23;20389;-87
2023/01/19 10:18:08;;;;;;;14.40;9.70;;;4.70;99.90;;;;;;6178398;23;20434;-86
2023/01/19 10:21:06;;;;;;;18.80;10.53;;;4.60;99.90;;;;;;6205938;23;20416;-87
2023/01/19 10:27:07;;;;;;;13.30;9.77;;;4.40;99.90;;;;;;6206955;23;20451;-85
2023/01/19 10:29:48;;;;;;;16.33;9.97;;;4.40;99.90;;;;;;6137366;23;20558;-89
2023/01/19 10:32:24;;;;;;;13.50;9.30;;;4.30;99.90;;;;;;6177765;23;20484;-87
2023/01/19 10:38:20;;;;;;;18.30;11.17;;;4.40;99.90;;;;;;6205590;23;20425;-87
2023/01/19 10:41:10;;;;;;;14.50;9.97;;;4.50;99.90;;;;;;6181412;23;20478;-87
2023/01/19 10:44:04;;;;;;;17.50;10.63;;;4.40;99.90;;;;;;6179221;23;20387;-87
2023/01/19 10:46:39;;;;;;;21.47;12.33;;;4.40;99.90;;;;;;6176143;23;20410;-87
2023/01/19 10:49:41;;;;;;;19.27;10.33;;;4.40;99.90;;;;;;6175729;23;20418;-88
2023/01/19 10:52:28;;;;;;;27.17;11.80;;;4.40;99.90;;;;;;6168793;23;20445;-84
2023/01/19 10:54:58;;;;;;;19.43;10.90;;;4.50;99.90;;;;;;6163046;23;20413;-88
2023/01/19 10:57:50;;;;;;;15.33;10.70;;;4.50;99.90;;;;;;6169984;23;20409;-88
2023/01/19 11:00:36;;;;;;;23.07;11.60;;;4.60;99.90;;;;;;6168302;23;20424;-86
2023/01/19 11:03:29;;;;;;;20.40;11.90;;;4.70;99.90;;;;;;6169400;23;21173;-88
2023/01/19 11:06:23;;;;;;;16.00;10.00;;;4.70;99.90;;;;;;6203257;23;20477;-88
2023/01/19 11:09:19;;;;;;;15.20;10.60;;;4.70;99.90;;;;;;6166884;22;20472;-89
2023/01/19 11:12:14;;;;;;;16.90;9.20;;;4.80;99.90;;;;;;6234589;22;20500;-87
2023/01/19 11:14:56;;;;;;;19.13;9.67;;;4.80;99.90;;;;;;6206838;23;20496;-86
2023/01/19 11:17:40;;;;;;;14.07;9.37;;;4.80;99.90;;;;;;6230419;22;20439;-87
2023/01/19 11:20:59;;;;;;;17.73;9.90;;;4.90;99.90;;;;;;6225838;23;20385;-87
2023/01/19 11:24:07;;;;;;;13.07;9.60;;;4.90;99.90;;;;;;6200237;23;20415;-89
2023/01/19 11:27:01;;;;;;;33.67;11.50;;;4.90;99.90;;;;;;6158068;23;20474;-89
2023/01/19 11:29:32;;;;;;;15.10;9.60;;;5.00;99.90;;;;;;6199980;23;20417;-86
2023/01/19 11:32:27;;;;;;;17.40;9.90;;;5.00;99.90;;;;;;6203796;23;20456;-88
2023/01/19 11:35:50;;;;;;;15.07;10.07;;;5.00;99.90;;;;;;6084647;23;20429;-86
2023/01/19 11:38:24;;;;;;;18.27;9.47;;;5.00;99.90;;;;;;6073603;23;20432;-88
2023/01/19 11:41:07;;;;;;;20.07;9.47;;;5.10;99.90;;;;;;6094036;23;20448;-88
2023/01/19 11:44:10;;;;;;;17.80;10.37;;;5.10;99.90;;;;;;6083143;23;20529;-86
2023/01/19 11:47:35;;;;;;;;;;;;;;;;;;;;;
2023/01/19 11:50:41;;;;;;;16.47;9.07;;;5.30;99.90;;;;;;6084349;23;20523;-84
2023/01/19 11:53:54;;;;;;;18.40;9.77;;;5.50;99.90;;;;;;6156543;23;20467;-85
2023/01/19 11:56:36;;;;;;;15.47;10.20;;;5.70;99.90;;;;;;6199686;23;20425;-86
2023/01/19 11:59:10;;;;;;;20.10;8.47;;;5.70;99.90;;;;;;6171271;23;20433;-87
2023/01/19 12:02:01;;;;;;;24.33;10.27;;;5.80;99.90;;;;;;6197074;23;20490;-87
2023/01/19 12:04:44;;;;;;;13.53;9.13;;;6.00;99.90;;;;;;6210053;23;20401;-86
2023/01/19 12:07:28;;;;;;;18.70;8.97;;;6.00;99.90;;;;;;6221683;23;20421;-87
2023/01/19 13:05:38;;;;;;;46.20;14.40;;;6.20;99.90;;;;;;6224185;23;20441;-86
2023/01/19 13:08:26;;;;;;;18.57;8.30;;;6.10;99.90;;;;;;6197791;23;20436;-86
2023/01/19 13:11:03;;;;;;;17.10;8.63;;;6.10;99.90;;;;;;6198221;23;20428;-85
2023/01/19 13:14:03;;;;;;;14.23;9.23;;;6.00;99.90;;;;;;6196636;23;20425;-87
2023/01/19 13:16:59;;;;;;;33.63;10.37;;;6.00;99.90;;;;;;6190838;23;20409;-87
2023/01/19 13:19:46;;;;;;;15.30;9.17;;;6.00;99.90;;;;;;6200882;23;20439;-86
2023/01/19 13:22:48;;;;;;;15.50;8.90;;;5.90;99.90;;;;;;6199749;23;20415;-87
2023/01/19 13:25:52;;;;;;;15.37;7.77;;;6.00;99.90;;;;;;6202283;23;20411;-87
2023/01/19 13:28:40;;;;;;;14.87;9.27;;;6.00;99.90;;;;;;6222968;23;20441;-86
2023/01/19 13:35:33;;;;;;;27.53;10.10;;;6.10;99.90;;;;;;6155979;23;20406;-88
2023/01/19 13:38:21;;;;;;;18.33;9.83;;;6.10;99.90;;;;;;6061659;23;20440;-86
2023/01/19 13:41:14;;;;;;;13.10;7.80;;;6.30;99.90;;;;;;6196581;23;20425;-85
2023/01/19 13:44:16;;;;;;;13.33;8.70;;;6.30;99.90;;;;;;6191369;23;20409;-87
2023/01/19 13:47:20;;;;;;;15.67;9.47;;;6.30;99.90;;;;;;6167168;23;20429;-86
2023/01/19 13:50:52;;;;;;;19.20;8.40;;;6.20;99.90;;;;;;6199559;23;20428;-88
2023/01/19 13:54:12;;;;;;;14.63;8.10;;;6.20;99.90;;;;;;6195684;23;20506;-87
2023/01/19 13:57:32;;;;;;;18.53;9.60;;;6.20;99.90;;;;;;6173253;23;20507;-87
2023/01/19 14:00:18;;;;;;;15.97;9.20;;;6.10;99.90;;;;;;6199139;23;20409;-88
2023/01/19 14:03:16;;;;;;;14.63;8.80;;;6.20;99.90;;;;;;6210991;23;20385;-88
2023/01/19 14:05:58;;;;;;;11.30;8.67;;;6.20;99.90;;;;;;6208751;23;20396;-87
2023/01/19 14:08:33;;;;;;;14.40;9.20;;;6.10;99.90;;;;;;6211612;23;20495;-89
2023/01/19 14:11:18;;;;;;;12.10;8.27;;;6.20;99.90;;;;;;6200955;23;20451;-87
2023/01/19 14:14:36;;;;;;;11.73;7.53;;;6.20;99.90;;;;;;6178897;22;20465;-88
2023/01/19 14:23:03;;;;;;;11.73;7.70;;;6.10;99.90;;;;;;6139623;23;20412;-90
2023/01/19 14:26:06;;;;;;;13.57;8.00;;;6.00;99.90;;;;;;6139644;23;20440;-87
2023/01/19 14:32:51;;;;;;;9.77;7.50;;;6.10;99.90;;;;;;6170150;23;20908;-89
2023/01/19 14:35:39;;;;;;;12.97;8.30;;;6.00;99.90;;;;;;6169111;23;20409;-87
2023/01/19 14:38:12;;;;;;;10.37;7.10;;;5.90;99.90;;;;;;6165727;23;20422;-86
2023/01/19 14:41:03;;;;;;;10.80;7.10;;;5.80;99.90;;;;;;6089289;23;20400;-87
2023/01/19 14:44:45;;;;;;;;;;;;;;;;;;;;;
2023/01/19 14:54:48;;;;;;;11.23;7.60;;;5.80;99.90;;;;;;6043016;23;20417;-87
2023/01/19 14:57:40;;;;;;;11.00;8.33;;;5.90;99.90;;;;;;6151310;23;20462;-88
2023/01/19 15:16:59;;;;;;;9.87;6.83;;;5.70;99.90;;;;;;4976453;28;20446;-87
2023/01/19 15:22:50;;;;;;;11.63;7.07;;;5.70;99.90;;;;;;5018244;23;20498;-87
2023/01/19 15:25:29;;;;;;;9.60;6.90;;;5.70;99.90;;;;;;4990023;28;20995;-86
2023/01/19 15:28:53;;;;;;;;;;;;;;;;;;;;;
2023/01/19 15:31:46;;;;;;;9.13;7.00;;;5.90;99.90;;;;;;4963784;28;20465;-87
2023/01/19 15:34:22;;;;;;;9.33;6.50;;;6.00;99.90;;;;;;4997625;28;20573;-89
2023/01/19 15:37:18;;;;;;;9.23;6.10;;;5.90;99.90;;;;;;4964937;28;20466;-88
2023/01/19 15:40:18;;;;;;;11.50;7.40;;;6.00;99.90;;;;;;4997594;28;20455;-87
2023/01/19 15:43:14;;;;;;;;;;;;;;;;;;;;;
2023/01/19 15:46:21;;;;;;;7.80;5.90;;;5.80;99.50;;;;;;4996371;28;20473;-86
2023/01/19 15:49:19;;;;;;;7.77;6.00;;;5.70;99.90;;;;;;4920959;28;20465;-88
2023/01/19 15:52:17;;;;;;;6.60;5.40;;;5.60;99.90;;;;;;5000641;28;20455;-86
2023/01/19 15:55:17;;;;;;;8.60;5.80;;;5.70;99.90;;;;;;4998775;28;20451;-85
2023/01/19 15:58:06;;;;;;;7.70;4.83;;;5.60;99.90;;;;;;4994851;28;20494;-87
2023/01/19 16:00:58;;;;;;;8.27;5.53;;;5.60;99.90;;;;;;4996682;28;20451;-85
2023/01/19 16:03:39;;;;;;;7.30;5.70;;;5.60;99.90;;;;;;4996204;28;20498;-87
2023/01/19 16:10:12;;;;;;;;;;;;;;;;;;;;;
2023/01/19 16:13:00;;;;;;;7.37;6.23;;;5.70;98.90;;;;;;4889326;29;20443;-84
2023/01/19 16:16:05;;;;;;;10.13;6.13;;;5.60;99.30;;;;;;4894538;29;20535;-86
2023/01/19 16:18:58;;;;;;;9.97;7.20;;;5.50;99.50;;;;;;4886642;29;20498;-86
2023/01/19 16:25:58;;;;;;;8.50;5.63;;;5.40;99.70;;;;;;4890661;29;20461;-87
2023/01/19 16:28:39;;;;;;;8.83;5.10;;;5.40;99.70;;;;;;4871744;29;20503;-85
2023/01/19 16:31:24;;;;;;;6.23;5.60;;;5.40;99.70;;;;;;4883672;29;20503;-88
2023/01/19 16:47:42;;;;;;;;;;;;;;;;;;;;;
2023/01/19 16:50:36;;;;;;;9.90;4.90;;;5.60;99.30;;;;;;4996974;28;20470;-86
2023/01/19 16:53:11;;;;;;;8.63;5.97;;;5.50;99.20;;;;;;4980267;28;20502;-84
2023/01/19 16:59:43;;;;;;;7.03;4.50;;;5.50;98.80;;;;;;4995783;28;20475;-87
2023/01/19 17:06:23;;;;;;;5.93;3.90;;;5.40;98.40;;;;;;4854138;29;20473;-86
2023/01/19 17:09:39;;;;;;;6.63;4.60;;;5.50;98.40;;;;;;4889224;29;20495;-85
2023/01/19 17:12:29;;;;;;;5.80;4.50;;;5.50;98.30;;;;;;4890854;29;20455;-87
2023/01/19 17:18:53;;;;;;;6.03;3.77;;;5.50;98.20;;;;;;4911857;29;20457;-87
2023/01/19 17:21:49;;;;;;;7.77;4.63;;;5.60;98.00;;;;;;4896524;29;20486;-88
2023/01/19 17:24:20;;;;;;;6.03;4.37;;;5.60;98.00;;;;;;4913482;29;20442;-85
2023/01/19 17:27:13;;;;;;;7.37;3.90;;;5.60;97.90;;;;;;4897908;29;20464;-87
2023/01/19 17:29:55;;;;;;;6.90;3.63;;;5.90;97.50;;;;;;4908540;29;20492;-86
2023/01/19 17:32:44;;;;;;;3.90;3.27;;;5.90;96.80;;;;;;4896937;29;20443;-87
2023/01/19 17:35:14;;;;;;;4.10;3.70;;;5.70;96.90;;;;;;4894519;29;20519;-85
2023/01/19 17:38:07;;;;;;;4.10;3.70;;;5.70;97.20;;;;;;4951430;28;20490;-88
2023/01/19 17:40:44;;;;;;;5.93;3.53;;;5.90;97.20;;;;;;5001081;28;20451;-89
2023/01/19 17:43:25;;;;;;;4.67;3.60;;;5.90;96.80;;;;;;4985868;28;20459;-87
2023/01/19 17:46:00;;;;;;;4.83;3.80;;;5.90;96.60;;;;;;4978048;28;20483;-87
2023/01/19 17:48:37;;;;;;;5.67;3.60;;;5.70;96.50;;;;;;4990390;28;20474;-89
2023/01/19 17:51:42;;;;;;;3.50;3.17;;;5.70;96.90;;;;;;4992021;28;20470;-87